createdAt,value
2018-07-21T00:01:19.179Z,7.57
2018-07-21T00:03:47.473Z,8.10
2018-07-21T00:06:16.113Z,9.10
2018-07-21T00:08:44.342Z,9.53
2018-07-21T00:11:12.760Z,8.30
2018-07-21T00:13:41.163Z,8.63
2018-07-21T00:16:09.574Z,7.57
2018-07-21T00:18:37.817Z,7.47
2018-07-21T00:21:06.175Z,9.80
2018-07-21T00:23:34.389Z,6.87
2018-07-21T00:26:02.695Z,8.43
2018-07-21T00:28:30.901Z,7.83
2018-07-21T00:30:59.749Z,8.80
2018-07-21T00:33:27.972Z,8.80
2018-07-21T00:35:56.201Z,9.10
2018-07-21T00:38:24.413Z,9.20
2018-07-21T00:40:52.640Z,10.90
2018-07-21T00:43:20.948Z,12.87
2018-07-21T00:45:49.185Z,11.13
2018-07-21T00:48:17.381Z,9.17
2018-07-21T00:50:45.601Z,9.63
2018-07-21T00:53:13.813Z,9.60
2018-07-21T00:55:42.033Z,9.27
2018-07-21T00:58:10.290Z,10.10
2018-07-21T01:00:38.551Z,11.13
2018-07-21T01:03:06.892Z,11.83
2018-07-21T01:05:35.109Z,8.80
2018-07-21T01:11:02.516Z,10.17
2018-07-21T01:13:32.617Z,9.33
2018-07-21T01:16:08.514Z,10.23
2018-07-21T01:21:27.528Z,9.13
2018-07-21T01:23:56.340Z,9.07
2018-07-21T01:26:24.561Z,9.83
2018-07-21T01:28:54.414Z,8.70
2018-07-21T01:34:35.592Z,9.10
2018-07-21T01:37:03.800Z,10.90
2018-07-21T01:39:32.032Z,8.70
2018-07-21T01:42:00.295Z,9.33
2018-07-21T01:44:28.516Z,9.00
2018-07-21T01:46:56.758Z,10.37
2018-07-21T01:49:25.061Z,11.10
2018-07-21T01:51:53.284Z,9.60
2018-07-21T01:54:21.522Z,10.40
2018-07-21T01:56:49.764Z,10.00
2018-07-21T01:59:17.979Z,11.07
2018-07-21T02:01:46.200Z,10.20
2018-07-21T02:04:14.439Z,11.60
2018-07-21T02:06:42.673Z,9.40
2018-07-21T02:09:11.355Z,10.43
2018-07-21T02:11:40.029Z,9.57
2018-07-21T02:14:08.509Z,10.67
2018-07-21T02:16:36.891Z,9.70
2018-07-21T02:19:05.404Z,10.33
2018-07-21T02:21:34.777Z,9.17
2018-07-21T02:24:03.041Z,12.80
2018-07-21T02:26:31.296Z,10.07
2018-07-21T02:28:59.663Z,9.87
2018-07-21T02:31:27.880Z,11.37
2018-07-21T02:33:56.126Z,9.67
2018-07-21T02:36:24.376Z,9.53
2018-07-21T02:38:52.596Z,9.50
2018-07-21T02:41:20.841Z,10.83
2018-07-21T02:43:49.113Z,9.80
2018-07-21T02:46:17.350Z,9.60
2018-07-21T02:48:45.572Z,11.17
2018-07-21T02:51:13.821Z,9.53
2018-07-21T02:53:42.109Z,9.13
2018-07-21T02:56:10.322Z,8.30
2018-07-21T02:58:38.620Z,9.80
2018-07-21T03:01:07.014Z,10.13
2018-07-21T03:03:35.259Z,10.67
2018-07-21T03:06:03.223Z,10.93
2018-07-21T03:08:31.470Z,12.30
2018-07-21T03:10:59.702Z,12.30
2018-07-21T03:13:28.013Z,11.83
2018-07-21T03:15:56.321Z,11.37
2018-07-21T03:18:24.640Z,11.90
2018-07-21T03:20:52.921Z,11.90
2018-07-21T03:23:21.254Z,13.57
2018-07-21T03:25:49.447Z,12.40
2018-07-21T03:28:17.665Z,11.50
2018-07-21T03:30:45.957Z,11.43
2018-07-21T03:33:14.169Z,11.43
2018-07-21T03:35:42.438Z,16.87
2018-07-21T03:38:10.752Z,14.23
2018-07-21T03:40:39.063Z,10.13
2018-07-21T03:43:07.325Z,10.57
2018-07-21T03:45:35.564Z,9.87
2018-07-21T03:48:03.862Z,10.90
2018-07-21T03:50:32.060Z,10.50
2018-07-21T03:53:00.288Z,10.67
2018-07-21T03:55:28.559Z,10.90
2018-07-21T03:57:56.829Z,9.87
2018-07-21T04:00:25.110Z,10.37
2018-07-21T04:02:53.376Z,9.80
2018-07-21T04:05:21.400Z,12.83
2018-07-21T04:07:49.761Z,9.57
2018-07-21T04:10:17.984Z,9.20
2018-07-21T04:12:46.221Z,11.73
2018-07-21T04:15:14.476Z,9.23
2018-07-21T04:17:42.812Z,9.43
2018-07-21T04:20:11.377Z,9.00
2018-07-21T04:22:39.605Z,9.67
2018-07-21T04:25:07.841Z,9.87
2018-07-21T04:27:36.069Z,8.80
2018-07-21T04:30:04.605Z,9.40
2018-07-21T04:32:33.060Z,9.93
2018-07-21T04:35:01.346Z,10.17
2018-07-21T04:37:29.578Z,9.60
2018-07-21T04:39:57.804Z,11.10
2018-07-21T04:42:26.094Z,10.50
2018-07-21T04:44:54.304Z,12.37
2018-07-21T04:47:22.520Z,14.00
2018-07-21T04:49:50.743Z,13.43
2018-07-21T04:52:18.980Z,12.80
2018-07-21T04:54:47.216Z,14.67
2018-07-21T04:57:15.424Z,14.17
2018-07-21T05:43:25.373Z,12.63
2018-07-21T05:45:53.600Z,12.33
2018-07-21T05:48:21.920Z,13.07
2018-07-21T05:50:50.173Z,12.30
2018-07-21T05:53:18.406Z,12.37
2018-07-21T05:55:46.623Z,10.10
2018-07-21T05:58:14.880Z,11.07
2018-07-21T06:00:43.111Z,11.63
2018-07-21T06:03:11.345Z,11.07
2018-07-21T06:05:39.553Z,12.37
2018-07-21T06:08:07.855Z,11.10
2018-07-21T06:10:36.079Z,10.67
2018-07-21T06:13:04.368Z,14.27
2018-07-21T06:15:32.679Z,11.27
2018-07-21T06:18:00.980Z,11.77
2018-07-21T06:20:29.251Z,13.00
2018-07-21T06:22:57.479Z,10.87
2018-07-21T06:25:25.756Z,12.33
2018-07-21T06:27:54.192Z,10.13
2018-07-21T06:30:22.400Z,10.90
2018-07-21T06:32:50.712Z,11.10
2018-07-21T06:35:18.985Z,12.07
2018-07-21T06:37:47.205Z,10.80
2018-07-21T06:40:15.483Z,10.20
2018-07-21T06:42:43.763Z,10.70
2018-07-21T06:45:12.065Z,11.47
2018-07-21T06:47:40.340Z,11.00
2018-07-21T06:50:09.093Z,14.33
2018-07-21T06:52:37.363Z,12.67
2018-07-21T06:55:05.780Z,11.77
2018-07-21T06:57:34.089Z,14.53
2018-07-21T07:00:02.415Z,14.90
2018-07-21T07:02:31.120Z,16.67
2018-07-21T07:04:59.400Z,16.30
2018-07-21T07:07:27.738Z,13.50
2018-07-21T07:09:55.989Z,14.80
2018-07-21T07:12:24.204Z,12.57
2018-07-21T07:14:52.449Z,11.17
2018-07-21T07:17:20.720Z,12.23
2018-07-21T07:19:48.984Z,12.03
2018-07-21T07:22:17.326Z,12.27
2018-07-21T07:24:45.608Z,11.50
2018-07-21T07:27:13.861Z,10.40
2018-07-21T07:29:42.083Z,10.70
2018-07-21T07:32:10.381Z,9.13
2018-07-21T07:34:38.660Z,9.63
2018-07-21T07:37:07.373Z,8.80
2018-07-21T07:39:35.623Z,10.20
2018-07-21T07:42:03.875Z,10.70
2018-07-21T07:44:32.176Z,10.20
2018-07-21T07:47:00.564Z,9.77
2018-07-21T07:49:28.822Z,10.37
2018-07-21T07:51:57.108Z,8.50
2018-07-21T07:54:25.387Z,9.57
2018-07-21T07:56:53.620Z,9.83
2018-07-21T07:59:22.370Z,9.37
2018-07-21T08:01:50.766Z,12.87
2018-07-21T08:04:19.041Z,10.10
2018-07-21T08:06:47.360Z,11.27
2018-07-21T08:09:15.579Z,9.30
2018-07-21T08:11:44.052Z,9.40
2018-07-21T08:14:12.299Z,10.40
2018-07-21T08:16:40.534Z,10.47
2018-07-21T08:19:10.471Z,10.20
2018-07-21T08:21:38.779Z,8.53
2018-07-21T08:24:07.356Z,8.40
2018-07-21T08:26:35.590Z,8.17
2018-07-21T08:29:03.909Z,9.27
2018-07-21T08:31:32.211Z,10.43
2018-07-21T08:34:00.536Z,10.20
2018-07-21T08:36:28.771Z,9.87
2018-07-21T08:38:57.365Z,8.47
2018-07-21T08:41:25.695Z,9.13
2018-07-21T08:43:54.034Z,10.90
2018-07-21T08:46:22.293Z,9.83
2018-07-21T08:48:50.504Z,9.83
2018-07-21T08:51:18.752Z,9.43
2018-07-21T08:53:47.040Z,9.37
2018-07-21T08:56:15.243Z,9.20
2018-07-21T08:58:43.576Z,8.87
2018-07-21T09:01:11.811Z,9.57
2018-07-21T09:03:40.022Z,9.27
2018-07-21T09:06:08.351Z,7.20
2018-07-21T09:08:36.571Z,6.93
2018-07-21T09:11:04.825Z,7.20
2018-07-21T09:13:33.062Z,7.07
2018-07-21T09:16:01.308Z,8.00
2018-07-21T09:18:29.567Z,6.80
2018-07-21T09:20:57.820Z,8.70
2018-07-21T09:23:26.028Z,9.27
2018-07-21T09:25:54.557Z,7.27
2018-07-21T09:28:22.819Z,6.27
2018-07-21T09:30:51.140Z,6.17
2018-07-21T09:33:19.720Z,6.23
2018-07-21T09:35:48.213Z,5.80
2018-07-21T09:38:16.491Z,5.80
2018-07-21T09:40:44.773Z,5.27
2018-07-21T09:43:13.009Z,4.87
2018-07-21T09:45:41.238Z,5.00
2018-07-21T09:48:09.460Z,5.13
2018-07-21T09:50:37.695Z,5.50
2018-07-21T09:53:05.965Z,5.37
2018-07-21T09:55:34.237Z,5.93
2018-07-21T09:58:02.540Z,5.57
2018-07-21T10:00:36.424Z,6.67
2018-07-21T10:03:04.708Z,8.70
2018-07-21T10:05:33.096Z,6.77
2018-07-21T10:08:01.347Z,8.33
2018-07-21T10:10:29.608Z,6.90
2018-07-21T10:12:57.831Z,7.67
2018-07-21T10:15:26.196Z,6.93
2018-07-21T10:17:54.388Z,6.20
2018-07-21T10:20:22.712Z,8.17
2018-07-21T10:22:50.949Z,5.97
2018-07-21T10:25:24.728Z,6.03
2018-07-21T10:27:58.368Z,7.83
2018-07-21T10:30:26.611Z,9.67
2018-07-21T10:32:54.944Z,7.00
2018-07-21T10:35:23.176Z,7.07
2018-07-21T10:37:51.586Z,7.87
2018-07-21T10:40:19.814Z,7.83
2018-07-21T10:42:48.181Z,8.63
2018-07-21T10:45:16.445Z,8.27
2018-07-21T10:47:44.722Z,10.30
2018-07-21T10:50:13.136Z,9.07
2018-07-21T10:52:41.397Z,9.33
2018-07-21T10:55:09.620Z,9.07
2018-07-21T10:57:37.853Z,8.57
2018-07-21T11:00:06.622Z,9.23
2018-07-21T11:02:34.963Z,9.67
2018-07-21T11:05:03.484Z,8.80
2018-07-21T11:07:31.797Z,8.27
2018-07-21T11:10:00.318Z,7.60
2018-07-21T11:12:28.777Z,8.77
2018-07-21T11:14:57.046Z,8.83
2018-07-21T11:17:25.352Z,8.60
2018-07-21T11:19:53.577Z,8.00
2018-07-21T11:22:21.869Z,8.23
2018-07-21T11:24:50.180Z,8.50
2018-07-21T11:27:18.400Z,9.27
2018-07-21T11:29:46.625Z,8.83
2018-07-21T11:32:15.122Z,10.73
2018-07-21T11:34:43.391Z,9.33
2018-07-21T11:37:11.622Z,9.73
2018-07-21T11:39:39.849Z,8.90
2018-07-21T11:42:08.078Z,11.67
2018-07-21T11:44:36.387Z,10.07
2018-07-21T11:47:04.597Z,10.57
2018-07-21T11:49:32.868Z,9.77
2018-07-21T11:52:01.067Z,9.10
2018-07-21T11:54:29.329Z,11.07
2018-07-21T11:56:59.573Z,12.43
2018-07-21T11:59:27.994Z,10.70
2018-07-21T12:01:56.402Z,11.70
2018-07-21T12:04:25.346Z,15.93
2018-07-21T12:06:53.616Z,11.97
2018-07-21T12:09:21.880Z,12.20
2018-07-21T12:11:50.133Z,10.80
2018-07-21T12:14:18.373Z,11.03
2018-07-21T12:16:46.608Z,10.90
2018-07-21T12:19:14.965Z,13.73
2018-07-21T12:21:43.179Z,9.70
2018-07-21T12:24:11.476Z,10.43
2018-07-21T12:26:39.741Z,10.30
2018-07-21T12:29:08.369Z,9.30
2018-07-21T12:31:36.660Z,9.07
2018-07-21T12:34:05.102Z,8.07
2018-07-21T12:36:33.396Z,8.17
2018-07-21T12:39:01.701Z,10.00
2018-07-21T12:41:29.945Z,7.90
2018-07-21T12:43:58.185Z,8.73
2018-07-21T12:46:26.431Z,8.17
2018-07-21T12:48:54.621Z,8.10
2018-07-21T12:51:23.060Z,5.70
2018-07-21T12:53:51.347Z,6.73
2018-07-21T12:56:19.562Z,7.00
2018-07-21T12:58:47.809Z,9.20
2018-07-21T13:01:16.016Z,5.77
2018-07-21T13:03:44.344Z,6.33
2018-07-21T13:06:12.564Z,4.50
2018-07-21T13:08:40.848Z,5.50
2018-07-21T13:11:09.125Z,5.87
2018-07-21T13:13:37.370Z,5.63
2018-07-21T13:16:05.661Z,6.00
2018-07-21T13:18:33.952Z,5.53
2018-07-21T13:21:02.246Z,4.40
2018-07-21T13:23:30.452Z,4.90
2018-07-21T13:25:58.680Z,4.00
2018-07-21T13:28:27.036Z,5.00
2018-07-21T13:30:55.319Z,6.00
2018-07-21T13:33:23.572Z,4.97
2018-07-21T13:35:51.828Z,6.07
2018-07-21T13:38:20.152Z,5.00
2018-07-21T13:40:48.340Z,5.50
2018-07-21T13:43:16.564Z,7.00
2018-07-21T13:45:44.877Z,4.87
2018-07-21T13:48:13.163Z,4.93
2018-07-21T13:50:41.396Z,4.83
2018-07-21T13:53:09.708Z,5.83
2018-07-21T13:55:37.951Z,4.50
2018-07-21T13:58:06.262Z,4.50
2018-07-21T14:00:34.589Z,4.80
2018-07-21T14:03:02.844Z,5.50
2018-07-21T14:05:31.124Z,5.67
2018-07-21T14:07:59.401Z,11.17
2018-07-21T14:10:27.715Z,8.33
2018-07-21T14:12:55.961Z,5.63
2018-07-21T14:15:24.259Z,5.67
2018-07-21T14:17:53.259Z,6.30
2018-07-21T14:20:21.506Z,6.60
2018-07-21T14:22:49.747Z,6.67
2018-07-21T14:25:18.068Z,7.10
2018-07-21T14:27:46.293Z,6.87
2018-07-21T14:30:14.555Z,5.93
2018-07-21T14:32:42.985Z,6.20
2018-07-21T14:35:11.236Z,6.03
2018-07-21T14:37:39.497Z,6.33
2018-07-21T14:40:08.002Z,5.87
2018-07-21T14:42:36.237Z,4.93
2018-07-21T14:45:04.627Z,5.50
2018-07-21T14:47:32.978Z,5.10
2018-07-21T14:50:01.248Z,5.67
2018-07-21T14:52:29.494Z,5.20
2018-07-21T14:54:57.797Z,5.03
2018-07-21T14:57:26.073Z,5.47
2018-07-21T14:59:54.317Z,5.47
2018-07-21T15:02:22.350Z,5.60
2018-07-21T15:04:50.636Z,4.80
2018-07-21T15:07:18.997Z,5.83
2018-07-21T15:09:47.271Z,5.70
2018-07-21T15:12:15.577Z,5.83
2018-07-21T15:14:43.874Z,7.27
2018-07-21T15:17:12.209Z,6.10
2018-07-21T15:19:40.512Z,6.27
2018-07-21T15:22:08.916Z,6.20
2018-07-21T15:24:37.405Z,6.27
2018-07-21T15:27:05.801Z,5.83
2018-07-21T15:29:34.116Z,8.27
2018-07-21T15:32:02.355Z,5.97
2018-07-21T15:34:31.249Z,5.67
2018-07-21T15:36:59.585Z,6.00
2018-07-21T15:39:27.856Z,6.47
2018-07-21T15:41:56.177Z,7.40
2018-07-21T15:44:24.451Z,6.87
2018-07-21T15:46:52.669Z,7.43
2018-07-21T15:49:20.668Z,6.80
2018-07-21T15:51:48.995Z,6.67
2018-07-21T15:54:17.228Z,5.50
2018-07-21T15:56:45.556Z,5.20
2018-07-21T15:59:13.797Z,6.07
2018-07-21T16:01:42.657Z,5.70
2018-07-21T16:04:11.025Z,7.50
2018-07-21T16:06:39.239Z,6.20
2018-07-21T16:09:09.138Z,6.33
2018-07-21T16:11:37.612Z,5.57
2018-07-21T16:14:05.751Z,5.27
2018-07-21T16:16:33.980Z,5.43
2018-07-21T16:19:02.246Z,5.93
2018-07-21T16:21:30.622Z,5.77
2018-07-21T16:23:59.000Z,6.27
2018-07-21T16:26:27.368Z,5.30
2018-07-21T16:28:55.602Z,5.53
2018-07-21T16:31:23.853Z,5.57
2018-07-21T16:33:52.825Z,5.43
2018-07-21T16:36:21.188Z,5.60
2018-07-21T16:38:49.519Z,5.53
2018-07-21T16:41:17.723Z,6.37
2018-07-21T16:43:46.049Z,5.03
2018-07-21T16:46:14.448Z,5.87
2018-07-21T16:48:42.701Z,5.03
2018-07-21T16:51:10.924Z,6.30
2018-07-21T16:53:39.261Z,4.20
2018-07-21T16:56:07.520Z,3.77
2018-07-21T16:58:35.721Z,3.10
2018-07-21T17:01:04.045Z,3.23
2018-07-21T17:03:32.410Z,2.80
2018-07-21T17:06:00.982Z,2.40
2018-07-21T17:08:29.217Z,2.07
2018-07-21T17:10:57.705Z,2.30
2018-07-21T17:13:25.942Z,2.00
2018-07-21T17:15:54.256Z,1.97
2018-07-21T17:18:22.488Z,3.00
2018-07-21T17:20:50.792Z,2.37
2018-07-21T17:23:19.086Z,2.43
2018-07-21T17:25:47.307Z,2.77
2018-07-21T17:28:15.720Z,3.27
2018-07-21T17:30:43.964Z,3.77
2018-07-21T17:33:12.254Z,3.13
2018-07-21T17:35:40.598Z,2.80
2018-07-21T17:38:08.985Z,2.63
2018-07-21T17:40:37.228Z,3.03
2018-07-21T17:43:05.533Z,2.97
2018-07-21T17:45:33.822Z,3.30
2018-07-21T17:48:02.171Z,3.67
2018-07-21T17:50:30.563Z,2.80
2018-07-21T17:52:58.862Z,2.40
2018-07-21T17:55:27.164Z,6.30
2018-07-21T17:57:55.546Z,2.90
2018-07-21T18:00:23.829Z,2.37
2018-07-21T18:02:51.823Z,2.63
2018-07-21T18:05:20.098Z,2.10
2018-07-21T18:07:48.333Z,2.00
2018-07-21T18:10:16.597Z,4.07
2018-07-21T18:12:44.872Z,2.30
2018-07-21T18:15:13.164Z,2.30
2018-07-21T18:17:41.432Z,2.33
2018-07-21T18:20:09.941Z,2.13
2018-07-21T18:22:38.251Z,2.50
2018-07-21T18:25:06.582Z,3.90
2018-07-21T18:27:34.961Z,1.70
2018-07-21T18:30:03.220Z,2.23
2018-07-21T18:32:31.503Z,1.93
2018-07-21T18:34:59.786Z,1.87
2018-07-21T18:37:28.041Z,2.10
2018-07-21T18:39:56.331Z,2.03
2018-07-21T18:42:24.525Z,2.20
2018-07-21T18:44:52.741Z,2.17
2018-07-21T18:47:21.000Z,2.27
2018-07-21T18:49:49.249Z,2.13
2018-07-21T18:52:17.596Z,1.83
2018-07-21T18:54:45.810Z,5.40
2018-07-21T18:57:14.040Z,3.23
2018-07-21T18:59:42.383Z,2.80
2018-07-21T19:02:10.560Z,6.57
2018-07-21T19:04:38.869Z,3.20
2018-07-21T19:07:07.080Z,3.40
2018-07-21T19:09:35.361Z,2.93
2018-07-21T19:12:09.146Z,3.67
2018-07-21T19:14:37.655Z,3.43
2018-07-21T19:17:05.904Z,3.40
2018-07-21T19:19:39.565Z,3.30
2018-07-21T19:22:07.800Z,3.80
2018-07-21T19:24:36.025Z,3.77
2018-07-21T19:27:09.536Z,3.70
2018-07-21T19:29:37.732Z,3.93
2018-07-21T19:33:12.302Z,4.40
2018-07-21T19:35:40.517Z,4.47
2018-07-21T19:38:08.829Z,4.37
2018-07-21T19:40:37.149Z,5.63
2018-07-21T19:43:05.369Z,5.33
2018-07-21T19:45:33.612Z,4.43
2018-07-21T19:48:02.760Z,5.20
2018-07-21T19:50:31.017Z,5.07
2018-07-21T19:52:59.391Z,7.10
2018-07-21T19:55:27.605Z,5.37
2018-07-21T19:57:55.855Z,5.07
2018-07-21T20:00:24.131Z,6.57
2018-07-21T20:02:52.351Z,5.40
2018-07-21T20:05:20.656Z,6.00
2018-07-21T20:07:48.921Z,5.17
2018-07-21T20:10:17.177Z,6.10
2018-07-21T20:12:45.633Z,6.80
2018-07-21T20:15:13.881Z,6.70
2018-07-21T20:17:42.123Z,7.33
2018-07-21T20:20:10.504Z,8.30
2018-07-21T20:22:38.702Z,8.37
2018-07-21T20:25:07.264Z,7.63
2018-07-21T20:27:35.537Z,9.27
2018-07-21T20:30:04.206Z,7.87
2018-07-21T20:32:32.448Z,7.57
2018-07-21T20:35:00.691Z,8.13
2018-07-21T20:37:28.982Z,8.50
2018-07-21T20:39:57.251Z,8.37
2018-07-21T20:42:25.524Z,10.70
2018-07-21T20:44:53.868Z,9.50
2018-07-21T20:47:22.120Z,9.00
2018-07-21T20:49:50.409Z,10.27
2018-07-21T20:52:19.550Z,8.83
2018-07-21T20:54:47.797Z,9.97
2018-07-21T20:57:16.162Z,10.23
2018-07-21T20:59:44.414Z,9.77
2018-07-21T21:02:12.675Z,10.80
2018-07-21T21:04:41.111Z,10.07
2018-07-21T21:07:09.484Z,11.43
2018-07-21T21:09:37.680Z,11.10
2018-07-21T21:12:06.077Z,11.23
2018-07-21T21:14:34.247Z,13.73
2018-07-21T21:17:02.538Z,12.43
2018-07-21T21:19:30.802Z,11.90
2018-07-21T21:21:59.052Z,13.13
2018-07-21T21:24:27.260Z,14.13
2018-07-21T21:26:55.493Z,13.10
2018-07-21T21:29:23.725Z,13.80
2018-07-21T21:31:51.953Z,16.97
2018-07-21T21:34:20.182Z,15.70
2018-07-21T21:36:48.464Z,14.07
2018-07-21T21:39:16.672Z,14.50
2018-07-21T21:41:44.922Z,14.77
2018-07-21T21:44:13.233Z,16.03
2018-07-21T21:46:41.484Z,17.90
2018-07-21T21:49:09.672Z,15.77
2018-07-21T21:51:38.157Z,18.27
2018-07-21T21:54:06.444Z,17.73
2018-07-21T21:56:34.643Z,20.77
2018-07-21T21:59:02.841Z,16.37
2018-07-21T22:01:30.881Z,17.93
2018-07-21T22:03:59.176Z,21.97
2018-07-21T22:06:27.398Z,18.57
2018-07-21T22:08:55.604Z,18.07
2018-07-21T22:11:23.977Z,19.23
2018-07-21T22:13:52.206Z,19.47
2018-07-21T22:16:20.467Z,17.30
2018-07-21T22:18:48.695Z,17.00
2018-07-21T22:21:16.961Z,18.43
2018-07-21T22:23:45.137Z,19.47
2018-07-21T22:26:13.424Z,17.97
2018-07-21T22:28:41.693Z,16.77
2018-07-21T22:31:09.909Z,15.93
2018-07-21T22:33:38.132Z,17.57
2018-07-21T22:36:06.357Z,16.87
2018-07-21T22:38:34.649Z,16.37
2018-07-21T22:41:02.864Z,16.50
2018-07-21T22:43:31.106Z,14.67
2018-07-21T22:45:59.069Z,17.63
2018-07-21T22:48:27.312Z,21.17
2018-07-21T22:50:55.592Z,17.03
2018-07-21T22:53:23.860Z,18.17
2018-07-21T22:55:52.145Z,14.73
2018-07-21T22:58:20.433Z,15.43
2018-07-21T23:00:48.693Z,15.83
2018-07-21T23:03:16.896Z,16.70
2018-07-21T23:05:45.132Z,17.37
2018-07-21T23:08:13.402Z,21.33
2018-07-21T23:10:41.700Z,20.93
2018-07-21T23:13:10.067Z,19.33
2018-07-21T23:15:38.293Z,21.57
2018-07-21T23:18:06.530Z,19.23
2018-07-21T23:20:34.892Z,18.70
2018-07-21T23:23:03.164Z,20.93
2018-07-21T23:25:31.397Z,23.77
2018-07-21T23:27:59.593Z,21.93
2018-07-21T23:30:28.683Z,26.83
2018-07-21T23:32:56.899Z,22.83
2018-07-21T23:35:25.171Z,24.40
2018-07-21T23:37:53.398Z,24.73
2018-07-21T23:40:21.657Z,27.70
2018-07-21T23:42:49.903Z,25.07
2018-07-21T23:45:18.120Z,24.20
2018-07-21T23:47:46.347Z,21.83
2018-07-21T23:50:14.624Z,22.67
2018-07-21T23:52:42.839Z,25.63
2018-07-21T23:55:11.079Z,24.77
2018-07-21T23:57:39.356Z,21.03
